Huvudsida
METAR-TAF:

METAR-TAF

Flygplatser :

Malacka, Malaysia

latitud: 02-16N, longitud: 102-15E, höjd: 11 m

Aktuellt väderrapport

Denna rapport gjordes för 46 minuter sedan, klockan 21:00 UTC
Vind 5 kt från nordost, varierande mellan nord/nordväst och ost
Temperatur 26°C
Fuktighet 89%
Tryck 1011 hPa
Sikt 10 km eller mer
Få moln på en höjd av 2800 ft

METAR: WMKM 222100Z 04005KT 340V090 9999 FEW028 26/24 Q1011

Tid: 05:46 (21:46 UTC)

Väderprognos

Denna rapport gjordes för 4 timmar och 46 minuter sedan, klockan 17:00 UTC
Prognos gäller från 22 kl. 18 UTC till 23 kl. 18 UTC
Vind 3 kt varierande vindriktning
Sikt 10 km eller mer
Få moln på en höjd av 2800 ft

TAF: WMKM 221700Z 2218/2318 VRB03KT 9999 FEW028

Aktuella väderrapporter och prognoser från 4000 flygplatser (METAR- och TAF-rapporter).

De tillgängliga stationerna syns som gula och röda prickar på kartan.

För musen över prickarna för att se namnen på stationerna.

Klicka sedan för att få väderrapporter och prognoser.

För att ändra kartan: Klicka på de gröna knapparna med ett svart kors på för att zooma in; den gröna knappen med ett streck på för att zooma ut; eller på de gröna pilarna för angränsande kartor.


METAR-TAF: